createdAt,value
2018-03-14T19:04:20.985Z,94939.25
2018-03-14T19:06:50.449Z,94943.36
2018-03-14T19:09:19.899Z,94942.27
2018-03-14T19:11:49.340Z,94945.00
2018-03-14T19:14:18.803Z,94933.99
2018-03-14T19:16:48.440Z,94933.33
2018-03-14T19:19:18.276Z,94934.13
2018-03-14T19:21:47.699Z,94931.48
2018-03-14T19:24:17.142Z,94921.67
2018-03-14T19:26:46.584Z,94922.64
2018-03-14T19:29:16.017Z,94923.59
2018-03-14T19:31:45.455Z,94925.11
2018-03-14T19:34:14.893Z,94927.94
2018-03-14T19:36:44.333Z,94921.73
2018-03-14T19:39:13.767Z,94921.67
2018-03-14T19:41:43.212Z,94919.84
2018-03-14T19:44:12.659Z,94912.45
2018-03-14T19:46:42.290Z,94916.74
2018-03-14T19:49:12.204Z,94911.79
2018-03-14T19:51:41.779Z,94910.16
2018-03-14T19:54:11.221Z,94898.82
2018-03-14T19:56:41.048Z,94894.59
2018-03-14T19:59:10.475Z,94891.59
2018-03-14T20:01:39.923Z,94895.78
2018-03-14T20:04:09.555Z,94896.34
2018-03-14T20:06:39.391Z,94895.98
2018-03-14T20:09:08.973Z,94896.05
2018-03-14T20:11:38.565Z,94887.98
2018-03-14T20:14:08.415Z,94891.50
2018-03-14T20:16:37.846Z,94893.21
2018-03-14T20:19:07.311Z,94896.11
2018-03-14T20:21:36.748Z,94883.01
2018-03-14T20:24:05.543Z,94879.05
2018-03-14T20:26:35.001Z,94869.80
2018-03-14T20:29:04.857Z,94873.83
2018-03-14T20:31:34.487Z,94876.30
2018-03-14T20:34:03.941Z,94872.34
2018-03-14T20:36:33.390Z,94874.84
2018-03-14T20:39:03.024Z,94878.14
2018-03-14T20:41:32.473Z,94878.78
2018-03-14T20:44:01.914Z,94878.95
2018-03-14T20:46:31.361Z,94869.14
2018-03-14T20:49:00.805Z,94859.27
2018-03-14T20:51:30.229Z,94856.54
2018-03-14T20:53:59.688Z,94862.70
2018-03-14T20:56:29.140Z,94857.66
2018-03-14T20:58:58.411Z,94868.73
2018-03-14T21:01:27.868Z,94856.97
2018-03-14T21:03:57.707Z,94847.52
2018-03-14T21:06:27.153Z,94836.68
2018-03-14T21:08:56.597Z,94829.31
2018-03-14T21:11:26.439Z,94811.34
2018-03-14T21:13:55.913Z,94810.80
2018-03-14T21:16:25.753Z,94814.89
2018-03-14T21:18:55.206Z,94812.41
2018-03-14T21:21:24.677Z,94817.61
2018-03-14T21:23:54.158Z,94812.58
2018-03-14T21:26:23.607Z,94806.59
2018-03-14T21:28:53.071Z,94806.80
2018-03-14T21:31:22.564Z,94798.48
2018-03-14T21:33:52.175Z,94791.92
2018-03-14T21:36:21.615Z,94781.52
2018-03-14T21:38:51.075Z,94779.59
2018-03-14T21:41:20.981Z,94777.45
2018-03-14T21:43:50.844Z,94768.38
2018-03-14T21:46:20.144Z,94757.60
2018-03-14T21:48:49.592Z,94752.56
2018-03-14T21:51:19.133Z,94752.97
2018-03-14T21:53:48.733Z,94746.39
2018-03-14T21:56:18.224Z,94744.87
2018-03-14T21:58:48.079Z,94742.16
2018-03-14T22:01:17.537Z,94737.72
2018-03-14T22:03:47.355Z,94733.86
2018-03-14T22:06:17.197Z,94733.85
2018-03-14T22:08:46.877Z,94729.41
2018-03-14T22:11:16.719Z,94737.53
2018-03-14T22:13:46.269Z,94731.55
2018-03-14T22:16:15.715Z,94732.88
2018-03-14T22:18:45.558Z,94729.23
2018-03-14T22:21:15.009Z,94723.84
2018-03-14T22:23:45.661Z,94722.48
2018-03-14T22:26:16.198Z,94719.20
2018-03-14T22:28:45.647Z,94723.25
2018-03-14T22:31:15.085Z,94717.67
2018-03-14T22:33:44.937Z,94706.09
2018-03-14T22:36:14.400Z,94697.98
2018-03-14T22:38:44.051Z,94700.30
2018-03-14T22:41:13.523Z,94696.24
2018-03-14T22:43:44.216Z,94697.39
2018-03-14T22:46:13.875Z,94695.47
2018-03-14T22:49:36.271Z,94682.55
2018-03-14T22:52:05.729Z,94680.22
2018-03-14T22:54:35.199Z,94680.19
2018-03-14T22:57:04.645Z,94674.81
2018-03-14T22:59:34.126Z,94677.50
2018-03-14T23:02:03.730Z,94680.00
2018-03-14T23:04:33.580Z,94682.33
2018-03-14T23:07:03.019Z,94686.56
2018-03-14T23:09:32.483Z,94686.95
2018-03-14T23:12:01.963Z,94686.38
2018-03-14T23:14:31.808Z,94678.08
2018-03-14T23:17:01.287Z,94676.67
2018-03-14T23:19:30.749Z,94673.59
2018-03-14T23:22:00.215Z,94672.23
2018-03-14T23:24:29.677Z,94664.72
2018-03-14T23:26:59.129Z,94661.69
2018-03-14T23:29:28.588Z,94660.59
2018-03-14T23:31:58.440Z,94660.00
2018-03-14T23:34:27.641Z,94657.08
2018-03-14T23:36:57.109Z,94654.14
2018-03-14T23:39:26.973Z,94645.08
2018-03-14T23:41:56.477Z,94638.69
2018-03-14T23:44:25.926Z,94630.38
2018-03-14T23:46:55.441Z,94633.41
2018-03-14T23:49:25.291Z,94630.86
2018-03-14T23:51:54.783Z,94630.71
2018-03-14T23:54:24.315Z,94623.05
2018-03-14T23:56:53.757Z,94617.66
2018-03-14T23:59:23.237Z,94616.68
